createdAt,value
2018-04-19T00:01:21.280Z,5.40
2018-04-19T00:03:48.877Z,5.23
2018-04-19T00:06:16.508Z,5.60
2018-04-19T00:08:44.094Z,4.93
2018-04-19T00:11:11.738Z,5.30
2018-04-19T00:13:39.331Z,4.43
2018-04-19T00:16:06.941Z,5.00
2018-04-19T00:18:34.555Z,5.30
2018-04-19T00:21:02.155Z,5.93
2018-04-19T00:23:29.779Z,5.60
2018-04-19T00:25:57.430Z,5.87
2018-04-19T00:28:25.062Z,5.47
2018-04-19T00:30:52.656Z,4.93
2018-04-19T00:33:20.255Z,5.13
2018-04-19T00:35:47.880Z,5.50
2018-04-19T00:38:15.470Z,5.07
2018-04-19T00:40:43.086Z,5.40
2018-04-19T00:43:10.682Z,7.83
2018-04-19T00:45:38.588Z,7.50
2018-04-19T00:48:06.254Z,6.73
2018-04-19T00:50:33.846Z,6.60
2018-04-19T00:53:09.216Z,6.23
2018-04-19T00:55:36.818Z,6.03
2018-04-19T00:58:04.435Z,5.80
2018-04-19T01:00:32.030Z,6.73
2018-04-19T01:02:59.903Z,5.37
2018-04-19T01:05:27.501Z,5.83
2018-04-19T01:07:55.100Z,5.80
2018-04-19T01:10:22.745Z,5.07
2018-04-19T01:12:50.341Z,4.97
2018-04-19T01:15:17.965Z,4.70
2018-04-19T01:17:45.576Z,5.67
2018-04-19T01:20:13.434Z,5.20
2018-04-19T01:22:41.040Z,4.70
2018-04-19T01:25:08.663Z,4.73
2018-04-19T01:27:36.292Z,6.40
2018-04-19T01:30:03.895Z,5.67
2018-04-19T01:32:31.507Z,5.03
2018-04-19T01:34:59.096Z,4.83
2018-04-19T01:37:26.722Z,4.83
2018-04-19T01:39:54.313Z,4.77
2018-04-19T01:42:21.931Z,4.57
2018-04-19T01:44:49.666Z,5.43
2018-04-19T01:47:17.726Z,5.47
2018-04-19T01:49:45.319Z,5.10
2018-04-19T01:52:12.907Z,4.97
2018-04-19T01:54:40.519Z,4.57
2018-04-19T01:57:08.108Z,4.90
2018-04-19T01:59:36.250Z,4.50
2018-04-19T02:02:03.847Z,5.20
2018-04-19T02:04:31.465Z,4.80
2018-04-19T02:06:59.090Z,5.17
2018-04-19T02:09:26.687Z,4.43
2018-04-19T02:11:54.319Z,4.73
2018-04-19T02:14:21.911Z,4.87
2018-04-19T02:16:49.501Z,6.03
2018-04-19T02:19:17.118Z,5.30
2018-04-19T02:21:44.712Z,5.20
2018-04-19T02:24:12.322Z,4.53
2018-04-19T02:26:39.929Z,5.00
2018-04-19T02:29:07.877Z,4.70
2018-04-19T02:31:35.749Z,6.07
2018-04-19T02:34:03.343Z,4.40
2018-04-19T02:36:30.970Z,5.00
2018-04-19T02:38:58.582Z,4.47
2018-04-19T02:41:26.194Z,4.07
2018-04-19T02:43:53.791Z,5.50
2018-04-19T02:46:21.418Z,5.70
2018-04-19T02:48:49.003Z,5.53
2018-04-19T02:51:16.599Z,5.10
2018-04-19T02:53:44.218Z,5.07
2018-04-19T02:56:11.816Z,5.30
2018-04-19T02:58:39.421Z,5.13
2018-04-19T03:01:07.027Z,5.63
2018-04-19T03:03:34.672Z,5.63
2018-04-19T03:08:36.016Z,5.40
2018-04-19T03:11:03.616Z,5.87
2018-04-19T03:13:31.294Z,5.90
2018-04-19T03:15:58.900Z,6.30
2018-04-19T03:18:26.487Z,5.90
2018-04-19T03:20:54.105Z,6.43
2018-04-19T03:23:21.704Z,5.97
2018-04-19T03:25:49.479Z,5.97
2018-04-19T03:28:17.077Z,6.53
2018-04-19T03:30:44.678Z,5.50
2018-04-19T03:33:12.345Z,6.50
2018-04-19T03:35:39.950Z,6.40
2018-04-19T03:38:07.563Z,5.60
2018-04-19T03:40:35.160Z,5.43
2018-04-19T03:43:02.974Z,6.60
2018-04-19T03:45:30.569Z,6.57
2018-04-19T03:47:58.212Z,8.50
2018-04-19T03:50:25.822Z,7.07
2018-04-19T03:52:53.418Z,7.80
2018-04-19T03:55:21.040Z,8.60
2018-04-19T03:57:48.647Z,7.97
2018-04-19T04:00:16.277Z,8.70
2018-04-19T04:02:43.973Z,6.60
2018-04-19T04:05:11.699Z,8.40
2018-04-19T04:07:39.321Z,7.90
2018-04-19T04:10:06.915Z,8.70
2018-04-19T04:12:34.530Z,9.20
2018-04-19T04:15:02.128Z,10.40
2018-04-19T04:17:41.433Z,10.37
2018-04-19T04:20:20.852Z,10.37
2018-04-19T04:23:00.219Z,10.27
2018-04-19T04:25:27.807Z,9.63
2018-04-19T04:27:55.545Z,8.80
2018-04-19T04:30:23.138Z,9.33
2018-04-19T04:32:50.734Z,8.27
2018-04-19T04:35:18.403Z,8.60
2018-04-19T04:37:46.008Z,8.10
2018-04-19T04:40:13.632Z,9.53
2018-04-19T04:42:41.222Z,8.97
2018-04-19T04:45:09.055Z,8.70
2018-04-19T04:47:36.648Z,7.67
2018-04-19T04:50:04.244Z,9.00
2018-04-19T04:52:31.861Z,9.07
2018-04-19T04:54:59.451Z,9.63
2018-04-19T04:57:27.080Z,10.17
2018-04-19T04:59:54.684Z,8.80
2018-04-19T05:02:22.320Z,9.03
2018-04-19T05:04:49.923Z,8.27
2018-04-19T05:07:17.511Z,8.57
2018-04-19T05:09:45.177Z,7.70
2018-04-19T05:12:12.790Z,7.73
2018-04-19T05:14:40.399Z,7.47
2018-04-19T05:17:07.999Z,8.40
2018-04-19T05:19:35.592Z,8.53
2018-04-19T05:22:03.240Z,7.77
2018-04-19T05:24:30.841Z,7.80
2018-04-19T05:26:58.704Z,8.00
2018-04-19T05:29:26.306Z,8.83
2018-04-19T05:31:53.907Z,11.17
2018-04-19T05:34:21.519Z,8.53
2018-04-19T05:36:49.114Z,8.90
2018-04-19T05:39:16.750Z,7.83
2018-04-19T05:41:44.354Z,8.27
2018-04-19T05:44:11.955Z,11.47
2018-04-19T05:46:39.717Z,9.00
2018-04-19T05:49:07.298Z,8.70
2018-04-19T05:51:34.922Z,9.80
2018-04-19T05:54:02.521Z,8.17
2018-04-19T05:56:30.162Z,8.03
2018-04-19T05:58:57.755Z,9.50
2018-04-19T06:01:25.349Z,9.23
2018-04-19T06:03:52.965Z,9.73
2018-04-19T06:06:20.594Z,7.40
2018-04-19T06:08:48.219Z,8.47
2018-04-19T06:11:16.720Z,8.30
2018-04-19T06:13:44.350Z,8.57
2018-04-19T06:16:11.948Z,9.10
2018-04-19T06:18:39.534Z,8.90
2018-04-19T06:21:07.151Z,8.00
2018-04-19T06:23:34.751Z,10.50
2018-04-19T06:26:02.371Z,8.60
2018-04-19T06:28:29.957Z,8.30
2018-04-19T06:30:57.714Z,7.60
2018-04-19T06:33:25.326Z,7.30
2018-04-19T06:35:52.963Z,7.40
2018-04-19T06:38:20.576Z,7.80
2018-04-19T06:40:48.176Z,7.00
2018-04-19T06:43:15.799Z,6.10
2018-04-19T06:45:43.706Z,5.93
2018-04-19T06:48:11.566Z,6.27
2018-04-19T06:50:39.162Z,5.80
2018-04-19T06:53:06.761Z,6.53
2018-04-19T06:55:34.399Z,6.23
2018-04-19T06:58:01.992Z,5.70
2018-04-19T07:00:29.615Z,5.60
2018-04-19T07:02:57.251Z,5.27
2018-04-19T07:05:24.873Z,5.23
2018-04-19T07:07:52.541Z,5.30
2018-04-19T07:10:20.130Z,4.57
2018-04-19T07:12:47.787Z,5.23
2018-04-19T07:15:15.377Z,4.83
2018-04-19T07:17:43.108Z,4.50
2018-04-19T07:20:10.795Z,4.93
2018-04-19T07:22:38.500Z,4.67
2018-04-19T07:25:06.098Z,4.80
2018-04-19T07:27:33.717Z,5.93
2018-04-19T07:30:01.332Z,4.13
2018-04-19T07:32:29.220Z,4.37
2018-04-19T07:34:56.828Z,4.93
2018-04-19T07:37:24.414Z,4.30
2018-04-19T07:39:52.174Z,4.40
2018-04-19T07:42:20.067Z,5.00
2018-04-19T07:44:47.925Z,5.50
2018-04-19T07:47:15.534Z,4.60
2018-04-19T07:49:43.137Z,6.10
2018-04-19T07:52:10.756Z,4.93
2018-04-19T07:54:38.341Z,5.33
2018-04-19T07:57:05.991Z,4.80
2018-04-19T07:59:33.570Z,4.07
2018-04-19T08:02:01.174Z,5.20
2018-04-19T08:04:28.787Z,4.20
2018-04-19T08:06:56.370Z,3.90
2018-04-19T08:09:24.001Z,4.37
2018-04-19T08:11:51.905Z,4.30
2018-04-19T08:14:20.298Z,5.40
2018-04-19T08:16:47.945Z,4.20
2018-04-19T08:19:15.541Z,4.67
2018-04-19T08:21:43.159Z,4.13
2018-04-19T08:24:10.744Z,4.20
2018-04-19T08:26:38.362Z,3.83
2018-04-19T08:29:05.960Z,5.33
2018-04-19T08:31:33.916Z,4.10
2018-04-19T08:34:03.900Z,3.60
2018-04-19T08:36:31.807Z,3.90
2018-04-19T08:38:59.414Z,4.20
2018-04-19T08:41:27.018Z,3.90
2018-04-19T08:43:54.978Z,4.40
2018-04-19T08:46:22.581Z,4.40
2018-04-19T08:48:50.164Z,3.97
2018-04-19T08:51:17.782Z,4.60
2018-04-19T08:53:46.559Z,3.80
2018-04-19T08:56:14.491Z,4.13
2018-04-19T08:58:42.078Z,3.40
2018-04-19T09:01:09.715Z,3.70
2018-04-19T09:03:37.313Z,3.57
2018-04-19T09:06:04.896Z,3.43
2018-04-19T09:08:32.529Z,4.10
2018-04-19T09:11:00.139Z,3.50
2018-04-19T09:13:27.823Z,3.30
2018-04-19T09:15:55.382Z,3.67
2018-04-19T09:18:23.277Z,6.10
2018-04-19T09:20:50.874Z,3.70
2018-04-19T09:23:18.468Z,4.13
2018-04-19T09:25:46.091Z,4.30
2018-04-19T09:28:13.691Z,3.03
2018-04-19T09:30:41.302Z,2.70
2018-04-19T09:33:09.277Z,3.10
2018-04-19T09:35:37.126Z,2.90
2018-04-19T09:38:04.724Z,3.83
2018-04-19T09:40:32.305Z,4.57
2018-04-19T09:42:59.923Z,2.60
2018-04-19T09:45:27.519Z,3.40
2018-04-19T09:47:55.161Z,3.17
2018-04-19T09:50:22.747Z,4.37
2018-04-19T09:52:50.554Z,3.63
2018-04-19T09:55:18.140Z,3.37
2018-04-19T09:57:57.755Z,3.03
2018-04-19T10:00:25.358Z,3.40
2018-04-19T10:02:52.947Z,4.10
2018-04-19T10:05:20.569Z,4.30
2018-04-19T10:07:48.220Z,3.57
2018-04-19T10:10:15.837Z,2.87
2018-04-19T10:12:43.528Z,3.00
2018-04-19T10:15:11.142Z,3.90
2018-04-19T10:17:38.738Z,2.53
2018-04-19T10:20:06.331Z,2.37
2018-04-19T10:22:33.937Z,2.80
2018-04-19T10:25:03.258Z,2.40
2018-04-19T10:27:30.898Z,2.93
2018-04-19T10:29:58.484Z,3.10
2018-04-19T10:32:26.377Z,3.20
2018-04-19T10:34:53.961Z,2.67
2018-04-19T10:37:21.597Z,2.23
2018-04-19T10:39:49.214Z,2.30
2018-04-19T10:42:16.803Z,2.90
2018-04-19T10:44:44.591Z,2.53
2018-04-19T10:47:12.178Z,2.30
2018-04-19T10:49:40.216Z,3.43
2018-04-19T10:52:07.809Z,2.57
2018-04-19T10:54:35.390Z,2.10
2018-04-19T10:57:03.008Z,2.20
2018-04-19T10:59:30.602Z,2.87
2018-04-19T11:01:58.202Z,2.80
2018-04-19T11:04:25.886Z,2.43
2018-04-19T11:06:53.502Z,2.30
2018-04-19T11:09:21.130Z,3.20
2018-04-19T11:11:48.718Z,2.50
2018-04-19T11:14:16.335Z,2.50
2018-04-19T11:16:44.215Z,3.73
2018-04-19T11:19:11.819Z,2.27
2018-04-19T11:21:39.749Z,2.03
2018-04-19T11:24:07.821Z,2.10
2018-04-19T11:26:35.402Z,2.20
2018-04-19T11:29:03.915Z,2.00
2018-04-19T11:31:31.531Z,4.30
2018-04-19T11:33:59.121Z,2.20
2018-04-19T11:36:26.737Z,2.13
2018-04-19T11:38:54.330Z,2.23
2018-04-19T11:41:22.357Z,1.87
2018-04-19T11:43:49.959Z,2.23
2018-04-19T11:46:17.576Z,2.07
2018-04-19T11:48:45.215Z,3.43
2018-04-19T11:51:12.820Z,2.40
2018-04-19T11:53:40.868Z,2.00
2018-04-19T11:56:08.457Z,1.63
2018-04-19T11:58:36.045Z,2.00
2018-04-19T12:01:03.655Z,1.73
2018-04-19T12:03:31.545Z,1.73
2018-04-19T12:05:59.924Z,2.23
2018-04-19T12:08:27.538Z,1.90
2018-04-19T12:10:57.695Z,1.47
2018-04-19T12:13:25.558Z,1.80
2018-04-19T12:15:53.515Z,1.30
2018-04-19T12:18:21.958Z,1.60
2018-04-19T12:20:50.493Z,1.93
2018-04-19T12:23:18.354Z,2.67
2018-04-19T12:25:45.940Z,1.87
2018-04-19T12:28:23.210Z,2.33
2018-04-19T12:30:54.628Z,2.07
2018-04-19T12:33:23.340Z,1.70
2018-04-19T12:35:55.234Z,2.10
2018-04-19T12:38:24.215Z,2.13
2018-04-19T12:40:51.962Z,2.40
2018-04-19T12:43:23.334Z,2.30
2018-04-19T12:46:02.068Z,2.83
2018-04-19T12:51:23.075Z,2.53
2018-04-19T12:53:57.237Z,1.70
2018-04-19T12:56:25.877Z,2.30
2018-04-19T12:58:58.573Z,2.07
2018-04-19T13:01:35.949Z,2.03
2018-04-19T13:04:16.243Z,2.00
2018-04-19T13:06:56.154Z,1.90
2018-04-19T13:09:36.966Z,1.83
2018-04-19T13:12:23.761Z,2.17
2018-04-19T13:15:04.241Z,1.83
2018-04-19T13:17:44.468Z,1.70
2018-04-19T13:20:23.476Z,2.40
2018-04-19T13:23:04.428Z,1.50
2018-04-19T13:25:42.063Z,1.40
2018-04-19T13:28:20.457Z,2.00
2018-04-19T13:30:50.248Z,1.30
2018-04-19T13:33:29.612Z,2.33
2018-04-19T13:36:10.364Z,1.60
2018-04-19T13:38:47.538Z,1.40
2018-04-19T13:41:18.834Z,2.33
2018-04-19T13:43:52.532Z,2.00
2018-04-19T13:46:27.685Z,1.63
2018-04-19T13:49:04.953Z,1.57
2018-04-19T13:51:42.564Z,1.37
2018-04-19T13:54:20.247Z,1.40
2018-04-19T13:56:58.922Z,1.43
2018-04-19T13:59:35.784Z,1.40
2018-04-19T14:02:11.220Z,1.57
2018-04-19T14:04:55.166Z,1.93
2018-04-19T14:07:38.573Z,2.30
2018-04-19T14:12:58.398Z,2.00
2018-04-19T14:15:35.369Z,1.40
2018-04-19T14:18:05.738Z,2.20
2018-04-19T14:20:34.118Z,2.43
2018-04-19T14:23:01.801Z,1.60
2018-04-19T14:25:37.334Z,2.40
2018-04-19T14:28:05.839Z,1.67
2018-04-19T14:30:33.603Z,1.90
2018-04-19T14:33:01.415Z,1.63
2018-04-19T14:35:29.014Z,2.47
2018-04-19T14:37:56.627Z,2.33
2018-04-19T14:40:24.214Z,1.83
2018-04-19T14:42:51.856Z,2.90
2018-04-19T14:45:19.457Z,2.33
2018-04-19T14:47:47.238Z,2.57
2018-04-19T14:50:14.842Z,2.50
2018-04-19T14:52:42.450Z,3.00
2018-04-19T14:55:10.113Z,2.23
2018-04-19T14:57:37.966Z,2.23
2018-04-19T15:00:05.580Z,2.80
2018-04-19T15:02:33.185Z,2.23
2018-04-19T15:05:00.879Z,2.23
2018-04-19T15:07:31.749Z,2.47
2018-04-19T15:10:00.558Z,2.70
2018-04-19T15:12:28.373Z,2.90
2018-04-19T15:14:56.038Z,2.67
2018-04-19T15:17:23.763Z,2.73
2018-04-19T15:19:51.321Z,2.50
2018-04-19T15:22:18.941Z,2.20
2018-04-19T15:24:46.529Z,1.90
2018-04-19T15:27:14.160Z,1.90
2018-04-19T15:29:41.757Z,1.80
2018-04-19T15:32:09.345Z,2.33
2018-04-19T15:34:36.965Z,2.30
2018-04-19T15:37:05.705Z,2.40
2018-04-19T15:39:33.314Z,2.37
2018-04-19T15:42:00.905Z,1.80
2018-04-19T15:44:28.938Z,1.83
2018-04-19T15:46:56.538Z,1.90
2018-04-19T15:49:24.123Z,2.00
2018-04-19T15:51:51.732Z,1.80
2018-04-19T15:54:19.325Z,1.80
2018-04-19T15:56:46.971Z,1.73
2018-04-19T15:59:14.572Z,1.80
2018-04-19T16:01:42.345Z,2.30
2018-04-19T16:04:09.926Z,2.27
2018-04-19T16:06:37.522Z,2.37
2018-04-19T16:09:05.826Z,2.53
2018-04-19T16:11:33.423Z,2.43
2018-04-19T16:14:01.045Z,2.63
2018-04-19T16:16:28.649Z,2.03
2018-04-19T16:18:56.328Z,2.20
2018-04-19T16:21:23.882Z,2.40
2018-04-19T16:23:51.488Z,2.20
2018-04-19T16:26:19.092Z,2.20
2018-04-19T16:28:48.622Z,1.90
2018-04-19T16:31:14.332Z,1.90
2018-04-19T16:33:41.923Z,1.70
2018-04-19T16:36:09.743Z,2.47
2018-04-19T16:38:37.341Z,2.03
2018-04-19T16:41:04.944Z,2.13
2018-04-19T16:43:32.576Z,2.57
2018-04-19T16:46:00.171Z,2.73
2018-04-19T16:48:28.152Z,2.57
2018-04-19T16:50:55.763Z,2.50
2018-04-19T16:53:23.393Z,2.33
2018-04-19T16:55:50.999Z,3.00
2018-04-19T16:58:18.596Z,2.30
2018-04-19T17:00:46.206Z,3.30
2018-04-19T17:03:13.802Z,2.43
2018-04-19T17:05:41.414Z,2.97
2018-04-19T17:08:09.026Z,2.70
2018-04-19T17:10:36.895Z,3.27
2018-04-19T17:13:04.494Z,2.87
2018-04-19T17:15:32.232Z,2.30
2018-04-19T17:18:01.892Z,1.90
2018-04-19T17:20:29.497Z,2.77
2018-04-19T17:22:57.116Z,2.33
2018-04-19T17:25:24.702Z,3.10
2018-04-19T17:27:52.290Z,2.47
2018-04-19T17:30:21.177Z,2.50
2018-04-19T17:32:48.764Z,2.60
2018-04-19T17:35:16.383Z,2.27
2018-04-19T17:37:43.970Z,2.73
2018-04-19T17:40:11.559Z,2.70
2018-04-19T17:42:39.165Z,2.27
2018-04-19T17:45:06.847Z,2.60
2018-04-19T17:47:34.801Z,2.07
2018-04-19T17:50:02.394Z,2.17
2018-04-19T17:52:29.990Z,2.30
2018-04-19T17:54:57.618Z,1.80
2018-04-19T17:57:25.213Z,2.73
2018-04-19T17:59:52.829Z,2.10
2018-04-19T18:02:20.568Z,2.53
2018-04-19T18:04:48.191Z,2.17
2018-04-19T18:07:15.793Z,2.20
2018-04-19T18:09:43.382Z,2.03
2018-04-19T18:12:11.124Z,2.57
2018-04-19T18:14:38.717Z,2.77
2018-04-19T18:17:06.327Z,3.00
2018-04-19T18:19:33.919Z,2.63
2018-04-19T18:22:01.638Z,2.07
2018-04-19T18:24:29.223Z,2.60
2018-04-19T18:26:56.816Z,3.50
2018-04-19T18:29:25.324Z,2.37
2018-04-19T18:31:52.946Z,3.43
2018-04-19T18:34:20.800Z,2.47
2018-04-19T18:36:48.442Z,3.00
2018-04-19T18:39:16.021Z,2.37
2018-04-19T18:41:43.633Z,2.13
2018-04-19T18:44:11.227Z,3.10
2018-04-19T18:46:38.855Z,2.50
2018-04-19T18:49:06.460Z,2.67
2018-04-19T18:51:34.133Z,2.80
2018-04-19T18:54:01.751Z,3.27
2018-04-19T18:56:29.414Z,2.87
2018-04-19T18:58:57.445Z,2.90
2018-04-19T19:01:25.036Z,2.87
2018-04-19T19:03:52.632Z,3.07
2018-04-19T19:06:20.250Z,3.27
2018-04-19T19:08:47.961Z,2.77
2018-04-19T19:11:15.749Z,2.30
2018-04-19T19:13:43.472Z,2.63
2018-04-19T19:16:11.077Z,3.30
2018-04-19T19:18:50.527Z,3.17
2018-04-19T19:21:18.120Z,2.50
2018-04-19T19:23:45.752Z,2.87
2018-04-19T19:26:13.345Z,2.93
2018-04-19T19:28:41.150Z,3.00
2018-04-19T19:31:08.750Z,3.03
2018-04-19T19:33:36.345Z,3.17
2018-04-19T19:36:03.957Z,3.00
2018-04-19T19:38:32.554Z,3.20
2018-04-19T19:41:00.232Z,2.93
2018-04-19T19:43:27.821Z,3.00
2018-04-19T19:45:55.597Z,2.90
2018-04-19T19:48:23.191Z,3.33
2018-04-19T19:50:50.799Z,3.40
2018-04-19T19:53:18.726Z,3.03
2018-04-19T19:55:46.611Z,3.10
2018-04-19T19:58:14.242Z,2.80
2018-04-19T20:00:41.987Z,2.80
2018-04-19T20:03:10.168Z,2.90
2018-04-19T20:05:38.088Z,2.60
2018-04-19T20:08:05.874Z,3.40
2018-04-19T20:10:33.721Z,3.53
2018-04-19T20:13:01.512Z,3.70
2018-04-19T20:15:29.260Z,3.50
2018-04-19T20:17:56.940Z,3.50
2018-04-19T20:20:24.733Z,3.33
2018-04-19T20:22:52.323Z,3.40
2018-04-19T20:25:19.914Z,3.60
2018-04-19T20:27:47.523Z,3.50
2018-04-19T20:30:15.125Z,3.50
2018-04-19T20:32:42.741Z,3.93
2018-04-19T20:35:10.342Z,3.67
2018-04-19T20:37:38.203Z,3.70
2018-04-19T20:40:06.181Z,3.70
2018-04-19T20:42:33.899Z,3.60
2018-04-19T20:45:01.529Z,3.90
2018-04-19T20:47:29.123Z,3.30
2018-04-19T20:49:56.734Z,4.20
2018-04-19T20:52:24.346Z,4.10
2018-04-19T20:54:52.209Z,3.77
2018-04-19T20:57:19.800Z,3.87
2018-04-19T20:59:47.390Z,3.60
2018-04-19T21:02:14.991Z,3.67
2018-04-19T21:04:42.596Z,3.73
2018-04-19T21:07:10.231Z,4.47
2018-04-19T21:09:37.825Z,4.30
2018-04-19T21:12:05.742Z,4.80
2018-04-19T21:14:33.343Z,4.40
2018-04-19T21:17:00.939Z,3.90
2018-04-19T21:19:28.556Z,4.90
2018-04-19T21:21:56.149Z,3.53
2018-04-19T21:24:23.792Z,3.60
2018-04-19T21:26:51.393Z,4.60
2018-04-19T21:29:19.022Z,4.20
2018-04-19T21:31:46.616Z,3.93
2018-04-19T21:34:14.359Z,4.97
2018-04-19T21:36:41.950Z,4.47
2018-04-19T21:39:09.624Z,4.20
2018-04-19T21:41:37.285Z,4.33
2018-04-19T21:44:04.875Z,3.40
2018-04-19T21:46:32.494Z,4.77
2018-04-19T21:49:00.078Z,3.80
2018-04-19T21:51:27.931Z,4.10
2018-04-19T21:53:55.517Z,3.83
2018-04-19T21:56:23.120Z,4.60
2018-04-19T21:58:50.734Z,4.33
2018-04-19T22:01:18.324Z,4.40
2018-04-19T22:03:45.939Z,4.30
2018-04-19T22:06:13.532Z,4.40
2018-04-19T22:08:41.146Z,3.93
2018-04-19T22:11:08.743Z,6.40
2018-04-19T22:13:36.331Z,4.53
2018-04-19T22:16:03.940Z,4.90
2018-04-19T22:18:31.527Z,4.73
2018-04-19T22:20:59.150Z,4.63
2018-04-19T22:23:26.762Z,4.63
2018-04-19T22:25:54.595Z,5.30
2018-04-19T22:28:22.195Z,4.37
2018-04-19T22:30:49.787Z,4.90
2018-04-19T22:33:17.411Z,4.43
2018-04-19T22:35:44.999Z,5.07
2018-04-19T22:38:12.890Z,5.77
2018-04-19T22:40:40.499Z,5.10
2018-04-19T22:43:08.145Z,5.77
2018-04-19T22:45:35.736Z,5.80
2018-04-19T22:48:03.332Z,4.77
2018-04-19T22:50:30.944Z,4.73
2018-04-19T22:52:58.541Z,5.33
2018-04-19T22:55:26.154Z,5.13
2018-04-19T22:57:53.773Z,4.73
2018-04-19T23:00:21.423Z,6.17
2018-04-19T23:02:49.013Z,5.40
2018-04-19T23:05:16.685Z,4.40
2018-04-19T23:07:44.302Z,5.73
2018-04-19T23:10:11.898Z,5.03
2018-04-19T23:12:39.518Z,5.70
2018-04-19T23:15:07.119Z,5.43
2018-04-19T23:17:35.011Z,5.23
2018-04-19T23:20:02.606Z,5.30
2018-04-19T23:22:35.426Z,5.30
2018-04-19T23:25:03.032Z,6.67
2018-04-19T23:27:30.631Z,5.37
2018-04-19T23:29:58.282Z,5.73
2018-04-19T23:32:25.884Z,5.93
2018-04-19T23:34:53.495Z,6.17
2018-04-19T23:37:21.090Z,6.93
2018-04-19T23:39:49.066Z,5.20
2018-04-19T23:42:16.667Z,4.43
2018-04-19T23:44:44.276Z,5.50
2018-04-19T23:47:11.899Z,5.70
2018-04-19T23:49:39.489Z,5.27
2018-04-19T23:52:07.107Z,6.53
2018-04-19T23:54:34.705Z,5.77
2018-04-19T23:57:02.506Z,5.60
2018-04-19T23:59:30.104Z,5.00
